createdAt,value
2023-03-20T00:00:19.987Z,3.73
2023-03-20T00:02:54.383Z,3.72
2023-03-20T00:05:30.317Z,3.69
2023-03-20T00:08:03.667Z,3.67
2023-03-20T00:10:46.499Z,3.64
2023-03-20T00:13:29.082Z,3.63
2023-03-20T00:16:03.094Z,3.63
2023-03-20T00:18:36.370Z,3.62
2023-03-20T00:21:20.531Z,3.61
2023-03-20T00:23:55.750Z,3.58
2023-03-20T00:26:46.670Z,3.54
2023-03-20T00:29:28.904Z,3.56
2023-03-20T00:32:02.090Z,3.54
2023-03-20T00:34:36.102Z,3.55
2023-03-20T00:37:12.033Z,3.56
2023-03-20T00:39:45.023Z,3.52
2023-03-20T00:42:22.548Z,3.47
2023-03-20T00:44:59.841Z,3.42
2023-03-20T00:47:32.777Z,3.40
2023-03-20T00:50:19.617Z,3.40
2023-03-20T00:52:53.924Z,3.41
2023-03-20T00:55:29.660Z,3.44
2023-03-20T00:58:04.682Z,3.40
2023-03-20T01:00:45.852Z,3.38
2023-03-20T01:03:27.861Z,3.37
2023-03-20T01:06:00.701Z,3.33
2023-03-20T01:08:33.809Z,3.32
2023-03-20T01:11:06.959Z,3.36
2023-03-20T01:13:40.937Z,3.37
2023-03-20T01:16:25.061Z,3.34
2023-03-20T01:18:58.206Z,3.26
2023-03-20T01:21:32.001Z,3.22
2023-03-20T01:24:06.707Z,3.25
2023-03-20T01:26:45.378Z,3.30
2023-03-20T01:29:24.457Z,3.38
2023-03-20T01:31:57.577Z,3.41
2023-03-20T01:34:31.567Z,3.44
2023-03-20T01:37:05.386Z,3.46
2023-03-20T01:39:39.893Z,3.39
2023-03-20T01:42:16.695Z,3.32
2023-03-20T01:44:49.576Z,3.29
2023-03-20T01:47:26.220Z,3.33
2023-03-20T01:50:23.978Z,3.35
2023-03-20T01:53:23.975Z,3.33
2023-03-20T01:56:00.634Z,3.24
2023-03-20T01:58:39.430Z,3.29
2023-03-20T02:01:16.295Z,3.37
2023-03-20T02:03:50.963Z,3.44
2023-03-20T02:06:27.641Z,3.48
2023-03-20T02:09:13.020Z,3.50
2023-03-20T02:11:49.160Z,3.52
2023-03-20T02:14:23.612Z,3.53
2023-03-20T02:17:01.762Z,3.53
2023-03-20T02:20:24.549Z,3.54
2023-03-20T02:23:37.867Z,3.51
2023-03-20T02:26:42.887Z,3.50
2023-03-20T02:29:48.484Z,3.46
2023-03-20T02:32:47.302Z,3.41
2023-03-20T02:35:33.789Z,3.37
2023-03-20T02:38:35.323Z,3.33
2023-03-20T02:41:25.381Z,3.33
2023-03-20T02:44:06.264Z,3.30
2023-03-20T02:46:47.220Z,3.29
2023-03-20T02:50:00.870Z,3.29
2023-03-20T02:52:50.888Z,3.26
2023-03-20T02:55:44.419Z,3.29
2023-03-20T02:58:35.876Z,3.29
2023-03-20T03:01:16.238Z,3.22
2023-03-20T03:03:53.657Z,3.16
2023-03-20T03:06:36.168Z,3.13
2023-03-20T03:09:22.896Z,3.14
2023-03-20T03:12:00.669Z,3.19
2023-03-20T03:14:50.222Z,3.19
2023-03-20T03:17:26.021Z,3.16
2023-03-20T03:20:05.130Z,3.13
2023-03-20T03:22:38.647Z,3.13
2023-03-20T03:25:14.264Z,3.14
2023-03-20T03:27:52.301Z,3.15
2023-03-20T03:30:34.391Z,3.17
2023-03-20T03:33:31.587Z,3.17
2023-03-20T03:36:16.658Z,3.14
2023-03-20T03:38:52.380Z,3.17
2023-03-20T03:41:42.136Z,3.21
2023-03-20T03:44:34.237Z,3.22
2023-03-20T03:47:31.284Z,3.23
2023-03-20T03:50:09.180Z,3.26
2023-03-20T03:52:44.062Z,3.27
2023-03-20T03:55:25.825Z,3.29
2023-03-20T03:58:13.967Z,3.30
2023-03-20T04:00:50.052Z,3.33
2023-03-20T04:03:26.016Z,3.35
2023-03-20T04:06:01.185Z,3.38
2023-03-20T04:08:36.480Z,3.38
2023-03-20T04:11:08.638Z,3.37
2023-03-20T04:13:42.658Z,3.39
2023-03-20T04:16:17.378Z,3.41
2023-03-20T04:18:51.052Z,3.46
2023-03-20T04:21:25.118Z,3.49
2023-03-20T04:23:58.013Z,3.48
2023-03-20T04:26:31.258Z,3.44
2023-03-20T04:29:04.790Z,3.40
2023-03-20T04:31:40.024Z,3.37
2023-03-20T04:34:18.337Z,3.36
2023-03-20T04:37:02.718Z,3.36
2023-03-20T04:39:37.950Z,3.38
2023-03-20T04:42:12.159Z,3.37
2023-03-20T04:44:46.349Z,3.36
2023-03-20T04:47:19.808Z,3.35
2023-03-20T04:49:53.446Z,3.39
2023-03-20T04:52:27.138Z,3.41
2023-03-20T04:55:01.151Z,3.44
2023-03-20T04:57:35.421Z,3.48
2023-03-20T05:00:11.776Z,3.50
2023-03-20T05:02:45.968Z,3.52
2023-03-20T05:05:20.643Z,3.52
2023-03-20T05:07:55.276Z,3.51
2023-03-20T05:10:39.363Z,3.53
2023-03-20T05:13:14.019Z,3.51
2023-03-20T05:15:58.242Z,3.49
2023-03-20T05:18:45.775Z,3.53
2023-03-20T05:21:36.974Z,3.57
2023-03-20T05:24:14.807Z,3.59
2023-03-20T05:26:52.098Z,3.66
2023-03-20T05:29:43.211Z,3.61
2023-03-20T05:32:21.046Z,3.64
2023-03-20T05:34:58.259Z,3.65
2023-03-20T05:37:33.687Z,3.65
2023-03-20T05:40:15.090Z,3.69
2023-03-20T05:43:05.974Z,3.74
2023-03-20T05:45:57.746Z,3.83
2023-03-20T05:48:33.201Z,3.90
2023-03-20T05:51:14.140Z,3.89
2023-03-20T05:53:57.846Z,3.88
2023-03-20T05:56:44.655Z,3.89
2023-03-20T05:59:19.698Z,3.94
2023-03-20T06:02:10.675Z,4.02
2023-03-20T06:04:45.988Z,4.03
2023-03-20T06:07:20.535Z,3.95
2023-03-20T06:09:56.133Z,3.92
2023-03-20T06:12:28.915Z,3.98
2023-03-20T06:15:02.090Z,4.07
2023-03-20T06:17:36.912Z,4.19
2023-03-20T06:20:12.926Z,4.28
2023-03-20T06:22:46.666Z,4.23
2023-03-20T06:25:22.134Z,4.19
2023-03-20T06:27:58.344Z,4.15
2023-03-20T06:30:31.930Z,4.14
2023-03-20T06:33:07.580Z,4.18
2023-03-20T06:35:42.264Z,4.27
2023-03-20T06:38:17.202Z,4.32
2023-03-20T06:40:50.856Z,4.39
2023-03-20T06:43:27.173Z,4.45
2023-03-20T06:46:00.289Z,4.51
2023-03-20T06:48:35.792Z,4.55
2023-03-20T06:51:10.561Z,4.60
2023-03-20T06:53:45.113Z,4.73
2023-03-20T06:56:22.738Z,4.87
2023-03-20T06:58:56.460Z,5.03
2023-03-20T07:01:30.336Z,5.13
2023-03-20T07:04:03.310Z,5.20
2023-03-20T07:06:38.795Z,5.23
2023-03-20T07:09:11.806Z,5.21
2023-03-20T07:11:45.357Z,5.29
2023-03-20T07:14:20.157Z,5.42
2023-03-20T07:16:56.668Z,5.58
2023-03-20T07:19:28.774Z,5.69
2023-03-20T07:22:05.777Z,5.78
2023-03-20T07:24:40.900Z,5.78
2023-03-20T07:27:14.353Z,5.75
2023-03-20T07:29:48.081Z,5.81
2023-03-20T07:32:22.664Z,5.84
2023-03-20T07:34:59.129Z,5.86
2023-03-20T07:37:34.182Z,5.90
2023-03-20T07:40:09.136Z,5.91
2023-03-20T07:42:45.980Z,5.96
2023-03-20T07:45:20.799Z,6.00
2023-03-20T07:47:54.083Z,6.04
2023-03-20T07:50:26.969Z,6.08
2023-03-20T07:52:59.923Z,6.19
2023-03-20T07:55:33.064Z,6.23
2023-03-20T07:58:06.728Z,6.29
2023-03-20T08:00:39.933Z,6.34
2023-03-20T08:03:12.881Z,6.38
2023-03-20T08:05:47.453Z,6.40
2023-03-20T08:08:21.693Z,6.42
2023-03-20T08:10:54.519Z,6.46
2023-03-20T08:13:29.268Z,6.52
2023-03-20T08:16:02.119Z,6.58
2023-03-20T08:18:35.422Z,6.66
2023-03-20T08:21:09.159Z,6.74
2023-03-20T08:23:42.338Z,6.82
2023-03-20T08:26:16.322Z,6.86
2023-03-20T08:28:51.405Z,6.90
2023-03-20T08:31:24.494Z,6.99
2023-03-20T08:33:58.069Z,7.08
2023-03-20T08:36:31.636Z,7.15
2023-03-20T08:39:07.218Z,7.20
2023-03-20T08:41:42.319Z,7.30
2023-03-20T08:44:16.669Z,7.41
2023-03-20T08:46:49.782Z,7.48
2023-03-20T08:49:22.683Z,7.54
2023-03-20T08:51:56.368Z,7.58
2023-03-20T08:54:30.081Z,7.68
2023-03-20T08:57:03.592Z,7.79
2023-03-20T08:59:36.986Z,7.90
2023-03-20T09:02:12.404Z,7.97
2023-03-20T09:04:45.290Z,8.03
2023-03-20T09:07:18.844Z,8.10
2023-03-20T09:09:51.854Z,8.20
2023-03-20T09:12:25.126Z,8.27
2023-03-20T09:14:57.984Z,8.34
2023-03-20T09:17:31.938Z,8.39
2023-03-20T09:20:05.544Z,8.47
2023-03-20T09:22:40.502Z,8.58
2023-03-20T09:25:13.817Z,8.67
2023-03-20T09:27:47.172Z,8.76
2023-03-20T09:30:19.930Z,8.80
2023-03-20T09:32:54.112Z,8.84
2023-03-20T09:35:27.024Z,8.77
2023-03-20T09:37:59.952Z,8.69
2023-03-20T09:40:52.621Z,8.75
2023-03-20T09:44:11.389Z,8.84
2023-03-20T09:47:20.496Z,8.93
2023-03-20T09:49:59.665Z,9.00
2023-03-20T09:52:40.818Z,8.97
2023-03-20T09:55:21.033Z,9.01
2023-03-20T09:57:58.274Z,9.11
2023-03-20T10:00:33.107Z,9.14
2023-03-20T10:03:15.003Z,9.10
2023-03-20T10:06:09.114Z,9.05
2023-03-20T10:08:43.561Z,9.00
2023-03-20T10:11:44.933Z,9.09
2023-03-20T10:14:41.209Z,9.10
2023-03-20T10:17:24.531Z,9.08
2023-03-20T10:20:29.673Z,9.03
2023-03-20T10:23:18.879Z,8.95
2023-03-20T10:26:11.344Z,8.95
2023-03-20T10:28:54.833Z,8.92
2023-03-20T10:31:51.366Z,8.91
2023-03-20T10:34:56.815Z,8.91
2023-03-20T10:37:58.805Z,8.90
2023-03-20T10:40:39.805Z,8.91
2023-03-20T10:43:25.515Z,8.96
2023-03-20T10:46:17.855Z,9.01
2023-03-20T10:48:56.348Z,9.08
2023-03-20T10:51:42.155Z,9.13
2023-03-20T10:54:25.175Z,9.17
2023-03-20T10:57:06.797Z,9.15
2023-03-20T10:59:55.052Z,9.13
2023-03-20T11:02:33.042Z,9.18
2023-03-20T11:05:37.142Z,9.20
2023-03-20T11:08:15.666Z,9.21
2023-03-20T11:10:48.400Z,9.23
2023-03-20T11:13:37.124Z,9.33
2023-03-20T11:16:33.896Z,9.38
2023-03-20T11:19:12.336Z,9.39
2023-03-20T11:21:56.425Z,9.40
2023-03-20T11:24:40.288Z,9.45
2023-03-20T11:27:28.341Z,9.49
2023-03-20T11:30:06.101Z,9.55
2023-03-20T11:32:49.113Z,9.64
2023-03-20T11:35:31.361Z,9.71
2023-03-20T11:38:24.172Z,9.78
2023-03-20T11:40:58.034Z,9.83
2023-03-20T11:43:31.575Z,9.85
2023-03-20T11:46:05.508Z,9.88
2023-03-20T11:48:40.455Z,9.89
2023-03-20T11:51:20.212Z,9.95
2023-03-20T11:54:13.211Z,10.02
2023-03-20T11:56:57.182Z,10.04
2023-03-20T11:59:35.470Z,10.08
2023-03-20T12:02:14.034Z,10.14
2023-03-20T12:04:47.869Z,10.19
2023-03-20T12:07:25.464Z,10.25
2023-03-20T12:10:09.765Z,10.30
2023-03-20T12:13:04.442Z,10.35
2023-03-20T12:15:41.808Z,10.40
2023-03-20T12:18:30.523Z,10.45
2023-03-20T12:21:23.257Z,10.50
2023-03-20T12:24:03.202Z,10.54
2023-03-20T12:27:04.656Z,10.57
2023-03-20T12:29:51.827Z,10.58
2023-03-20T12:32:44.331Z,10.60
2023-03-20T12:35:31.460Z,10.64
2023-03-20T12:38:08.179Z,10.67
2023-03-20T12:40:45.321Z,10.71
2023-03-20T12:43:30.876Z,10.77
2023-03-20T12:46:23.672Z,10.81
2023-03-20T12:49:22.156Z,10.88
2023-03-20T12:52:15.104Z,10.92
2023-03-20T12:55:01.938Z,10.95
2023-03-20T12:58:04.232Z,10.99
2023-03-20T13:01:01.615Z,11.03
2023-03-20T13:03:51.861Z,11.05
2023-03-20T13:06:47.391Z,11.07
2023-03-20T13:09:49.441Z,11.08
2023-03-20T13:13:01.024Z,11.11
2023-03-20T13:16:06.084Z,11.15
2023-03-20T13:19:04.496Z,11.18
2023-03-20T13:21:51.256Z,11.19
2023-03-20T13:24:49.291Z,11.17
2023-03-20T13:27:41.274Z,11.16
2023-03-20T13:30:40.317Z,11.16
2023-03-20T13:33:23.199Z,11.16
2023-03-20T13:36:06.525Z,11.16
2023-03-20T13:38:43.581Z,11.16
2023-03-20T13:41:16.697Z,11.18
2023-03-20T13:44:02.023Z,11.19
2023-03-20T13:46:51.040Z,11.19
2023-03-20T13:49:48.358Z,11.21
2023-03-20T13:52:38.258Z,11.22
2023-03-20T13:55:30.193Z,11.22
2023-03-20T13:58:28.826Z,11.23
2023-03-20T14:01:27.406Z,11.24
2023-03-20T14:04:01.882Z,11.23
2023-03-20T14:06:49.100Z,11.23
2023-03-20T14:09:37.220Z,11.21
2023-03-20T14:12:13.877Z,11.20
2023-03-20T14:14:58.935Z,11.19
2023-03-20T14:17:33.177Z,11.19
2023-03-20T14:20:31.123Z,11.19
2023-03-20T14:23:06.001Z,11.18
2023-03-20T14:25:44.053Z,11.16
2023-03-20T14:28:27.770Z,11.16
2023-03-20T14:31:26.533Z,11.14
2023-03-20T14:34:22.113Z,11.10
2023-03-20T14:37:06.483Z,11.08
2023-03-20T14:39:47.100Z,11.04
2023-03-20T14:42:30.500Z,10.99
2023-03-20T14:45:48.334Z,10.96
2023-03-20T14:48:43.861Z,10.92
2023-03-20T14:51:42.522Z,10.88
2023-03-20T14:54:29.387Z,10.85
2023-03-20T14:57:13.160Z,10.81
2023-03-20T14:59:46.322Z,10.78
2023-03-20T15:02:32.752Z,10.76
2023-03-20T15:05:06.480Z,10.73
2023-03-20T15:07:40.316Z,10.71
2023-03-20T15:10:13.485Z,10.69
2023-03-20T15:12:46.668Z,10.67
2023-03-20T15:15:31.874Z,10.63
2023-03-20T15:18:15.746Z,10.60
2023-03-20T15:20:49.104Z,10.52
2023-03-20T15:23:23.570Z,10.47
2023-03-20T15:25:56.506Z,10.39
2023-03-20T15:28:31.592Z,10.35
2023-03-20T15:31:05.068Z,10.29
2023-03-20T15:33:42.520Z,10.23
2023-03-20T15:36:23.093Z,10.17
2023-03-20T15:39:17.619Z,10.13
2023-03-20T15:41:58.228Z,10.07
2023-03-20T15:44:40.058Z,9.98
2023-03-20T15:47:22.931Z,9.92
2023-03-20T15:50:02.927Z,9.87
2023-03-20T15:52:44.874Z,9.82
2023-03-20T15:55:21.572Z,9.75
2023-03-20T15:58:01.086Z,9.68
2023-03-20T16:00:40.037Z,9.64
2023-03-20T16:03:18.679Z,9.56
2023-03-20T16:05:53.021Z,9.50
2023-03-20T16:08:34.212Z,9.45
2023-03-20T16:11:11.544Z,9.39
2023-03-20T16:13:49.902Z,9.36
2023-03-20T16:16:25.267Z,9.35
2023-03-20T16:18:59.412Z,9.33
2023-03-20T16:21:41.404Z,9.32
2023-03-20T16:24:25.596Z,9.30
2023-03-20T16:26:59.629Z,9.23
2023-03-20T16:29:32.575Z,9.18
2023-03-20T16:32:18.930Z,9.16
2023-03-20T16:34:53.214Z,9.14
2023-03-20T16:37:31.128Z,9.11
2023-03-20T16:40:35.564Z,9.10
2023-03-20T16:43:20.698Z,9.08
2023-03-20T16:45:56.675Z,9.03
2023-03-20T16:48:39.312Z,8.98
2023-03-20T16:51:21.526Z,8.92
2023-03-20T16:54:02.715Z,8.88
2023-03-20T16:56:39.613Z,8.83
2023-03-20T16:59:17.311Z,8.78
2023-03-20T17:01:53.012Z,8.76
2023-03-20T17:04:39.875Z,8.73
2023-03-20T17:07:19.484Z,8.69
2023-03-20T17:10:22.008Z,8.65
2023-03-20T17:12:55.472Z,8.60
2023-03-20T17:15:28.769Z,8.53
2023-03-20T17:18:03.504Z,8.48
2023-03-20T17:20:36.834Z,8.45
2023-03-20T17:23:19.776Z,8.40
2023-03-20T17:25:54.398Z,8.38
2023-03-20T17:28:32.031Z,8.34
2023-03-20T17:31:05.839Z,8.30
2023-03-20T17:33:40.527Z,8.28
2023-03-20T17:36:32.797Z,8.25
2023-03-20T17:39:05.583Z,8.22
2023-03-20T17:41:39.109Z,8.16
2023-03-20T17:44:12.543Z,8.11
2023-03-20T17:46:57.749Z,8.08
2023-03-20T17:49:23.071Z,8.03
2023-03-20T17:51:57.476Z,8.00
2023-03-20T17:54:30.967Z,7.93
2023-03-20T17:57:04.120Z,7.87
2023-03-20T17:59:36.908Z,7.88
2023-03-20T18:02:13.397Z,7.88
2023-03-20T18:04:50.099Z,7.86
2023-03-20T18:07:23.658Z,7.85
2023-03-20T18:09:57.235Z,7.83
2023-03-20T18:12:30.964Z,7.79
2023-03-20T18:15:04.482Z,7.72
2023-03-20T18:17:37.830Z,7.61
2023-03-20T18:20:29.764Z,7.56
2023-03-20T18:23:03.726Z,7.52
2023-03-20T18:25:37.719Z,7.45
2023-03-20T18:28:18.926Z,7.36
2023-03-20T18:30:53.681Z,7.26
2023-03-20T18:33:28.651Z,7.18
2023-03-20T18:36:02.247Z,7.11
2023-03-20T18:38:35.713Z,7.08
2023-03-20T18:41:09.347Z,7.03
2023-03-20T18:43:44.233Z,6.98
2023-03-20T18:46:22.101Z,6.92
2023-03-20T18:48:56.981Z,6.86
2023-03-20T18:51:32.822Z,6.81
2023-03-20T18:54:05.967Z,6.77
2023-03-20T18:56:39.450Z,6.72
2023-03-20T18:59:14.416Z,6.68
2023-03-20T19:01:47.264Z,6.66
2023-03-20T19:04:22.911Z,6.66
2023-03-20T19:06:56.670Z,6.66
2023-03-20T19:09:29.971Z,6.67
2023-03-20T19:12:02.704Z,6.68
2023-03-20T19:14:36.072Z,6.66
2023-03-20T19:17:10.932Z,6.62
2023-03-20T19:19:44.435Z,6.57
2023-03-20T19:22:28.981Z,6.55
2023-03-20T19:24:53.308Z,6.52
2023-03-20T19:27:26.502Z,6.51
2023-03-20T19:30:00.786Z,6.51
2023-03-20T19:32:34.806Z,6.53
2023-03-20T19:37:47.468Z,6.55
2023-03-20T19:40:38.353Z,6.52
2023-03-20T19:43:10.715Z,6.49
2023-03-20T19:45:46.713Z,6.47
2023-03-20T19:48:22.665Z,6.41
2023-03-20T19:50:57.173Z,6.37
2023-03-20T19:53:31.673Z,6.39
2023-03-20T19:56:05.023Z,6.40
2023-03-20T19:58:40.951Z,6.38
2023-03-20T20:01:25.860Z,6.32
2023-03-20T20:03:59.474Z,6.26
2023-03-20T20:06:33.464Z,6.19
2023-03-20T20:09:06.637Z,6.16
2023-03-20T20:11:39.821Z,6.17
2023-03-20T20:14:14.797Z,6.18
2023-03-20T20:16:52.026Z,6.15
2023-03-20T20:19:25.044Z,6.11
2023-03-20T20:22:24.917Z,6.09
2023-03-20T20:24:34.211Z,6.05
2023-03-20T20:27:18.723Z,6.02
2023-03-20T20:29:49.687Z,6.02
2023-03-20T20:32:26.042Z,6.02
2023-03-20T20:35:38.815Z,6.00
2023-03-20T20:38:25.189Z,5.93
2023-03-20T20:40:17.310Z,5.86
2023-03-20T20:42:52.242Z,5.79
2023-03-20T20:45:31.527Z,5.72
2023-03-20T20:48:07.512Z,5.66
2023-03-20T20:50:43.523Z,5.64
2023-03-20T20:53:17.912Z,5.62
2023-03-20T20:55:51.408Z,5.59
2023-03-20T20:58:24.796Z,5.56
2023-03-20T21:00:58.736Z,5.49
2023-03-20T21:03:32.032Z,5.43
2023-03-20T21:06:09.674Z,5.43
2023-03-20T21:08:42.422Z,5.34
2023-03-20T21:11:16.928Z,5.30
2023-03-20T21:13:54.943Z,5.28
2023-03-20T21:16:29.441Z,5.22
2023-03-20T21:19:02.804Z,5.16
2023-03-20T21:21:36.020Z,5.12
2023-03-20T21:24:30.574Z,5.11
2023-03-20T21:26:46.582Z,5.05
2023-03-20T21:29:20.939Z,5.01
2023-03-20T21:31:54.896Z,4.97
2023-03-20T21:34:29.319Z,4.88
2023-03-20T21:37:56.156Z,4.83
2023-03-20T21:39:38.691Z,4.80
2023-03-20T21:42:16.960Z,4.78
2023-03-20T21:46:04.601Z,4.76
2023-03-20T21:50:45.931Z,4.68
2023-03-20T21:53:16.994Z,4.67
2023-03-20T21:58:23.898Z,4.66
2023-03-20T22:03:01.595Z,4.62
2023-03-20T22:09:09.731Z,4.57
2023-03-20T22:11:38.589Z,4.54
2023-03-20T22:16:33.742Z,4.48
2023-03-20T22:19:29.459Z,4.47
2023-03-20T22:29:48.237Z,4.20
2023-03-20T22:39:48.000Z,4.09
2023-03-20T22:42:38.231Z,4.02
2023-03-20T22:45:00.133Z,3.94
2023-03-20T22:46:54.228Z,3.88
2023-03-20T22:49:27.584Z,3.83
2023-03-20T22:52:24.546Z,3.78
2023-03-20T22:54:36.554Z,3.73
2023-03-20T22:57:09.780Z,3.66
2023-03-20T22:59:42.710Z,3.61
2023-03-20T23:02:17.518Z,3.54
2023-03-20T23:04:49.423Z,3.51
2023-03-20T23:07:22.869Z,3.50
2023-03-20T23:09:55.969Z,3.47
2023-03-20T23:12:28.928Z,3.47
2023-03-20T23:15:02.174Z,3.46
2023-03-20T23:17:35.779Z,3.48
2023-03-20T23:20:12.942Z,3.51
2023-03-20T23:22:45.539Z,3.54
2023-03-20T23:25:30.993Z,3.56
2023-03-20T23:27:55.610Z,3.53
2023-03-20T23:30:37.904Z,3.52
2023-03-20T23:33:03.616Z,3.50
2023-03-20T23:35:37.034Z,3.47
2023-03-20T23:38:10.370Z,3.44
2023-03-20T23:40:44.913Z,3.41
2023-03-20T23:43:19.030Z,3.37
2023-03-20T23:45:52.515Z,3.30
2023-03-20T23:48:26.256Z,3.25
2023-03-20T23:50:59.453Z,3.20
2023-03-20T23:53:33.572Z,3.17
2023-03-20T23:56:07.086Z,3.11
2023-03-20T23:58:47.573Z,3.04
